メインページ
METAR-TAF:

METAR-TAF

空港 :

ルイス・ムニョス・マリン国際空港

サンフアン, プエルトリコ, アメリカ合衆国

緯度: 18-27N, 経度: 066-00W, 海抜: 3m

現時点の気象観測

当レポートは58分前の06:56(UTC)に作成
東/南東の風 7kt
気温 26°C
湿度 94%
気圧 1016 hPa
視程: 16.1km
高度1900ftの雲はほとんどない
高度3000ftの雲は散在している
高度4400ftの雲は散在している
小雨

METAR: TJSJ 190656Z 11007KT 10SM -RA FEW019 SCT030 SCT044 26/25 A3001 RMK AO2 RAB21E55B56 SLP160 P0012 T02560250

時間: 03:54 (07:54 UTC)

予報

当レポートは2時間29分前の05:25(UTC)に作成
予報は19日の 06時(UTC)から 20日の 06時(UTC)まで有効
の風 13kt
視程: 10km
高度2500ftの雲は散在している
高度6000ftの雲は散在している
19日の 1300時(UTC)から
の風 12kt
視程: 10km
高度3000ftの雲は散在している
高度5000ftの雲は散在している
近辺でにわか雨
19日の 1630時(UTC)から
の風 15kt
視程: 10km
高度2500ftの雲は散在している, 積乱雲.
高度5000ftの千切れ雲あり
近辺で激しい雷雨
19日の 2300時(UTC)から
東/南東の風 5kt
視程: 10km
高度6000ftの雲は散在している

TAF: TJSJ 190525Z 1906/2006 08013KT P6SM SCT025 SCT060 FM191300 08012KT P6SM VCSH SCT030 SCT050 FM191630 08015KT P6SM VCTS SCT025CB BKN050 FM192300 11005KT P6SM SCT060

4,000以上の空港の気象観測と天気予報(METAR報とTAF報)

利用可能な観測所は地図上に黄色い丸と赤い丸で示す。

丸の上にカーソルを重ねると観測所名を参照できる。

次にクリックすると気象観測と天気予報を参照できる。

マップの切り替え:黒色「×」印の緑ボタンをクリックして拡大、「-」印の緑ボタンをクリックして縮小、緑色の三角印をクリックして隣りの地図に切り替え


METAR-TAF: